sensor_id;sensor_type;location;lat;lon;timestamp;pressure;altitude;pressure_sealevel;temperature;humidity
42621;BME280;28252;53.336;-6.298;2023-07-09T00:00:02;100951.84;;;24.35;100.00
42621;BME280;28252;53.336;-6.298;2023-07-09T00:00:36;100947.25;;;24.35;100.00
42621;BME280;28252;53.336;-6.298;2023-07-09T00:01:17;100958.13;;;24.35;100.00
42621;BME280;28252;53.336;-6.298;2023-07-09T00:01:55;100952.69;;;24.35;99.99
42621;BME280;28252;53.336;-6.298;2023-07-09T00:02:29;100955.41;;;24.35;100.00
42621;BME280;28252;53.336;-6.298;2023-07-09T00:03:00;100961.69;;;24.36;100.00
42621;BME280;28252;53.336;-6.298;2023-07-09T00:03:35;100950.97;;;24.34;100.00
42621;BME280;28252;53.336;-6.298;2023-07-09T00:04:09;100955.41;;;24.35;100.00
42621;BME280;28252;53.336;-6.298;2023-07-09T00:04:42;100964.41;;;24.36;100.00
42621;BME280;28252;53.336;-6.298;2023-07-09T00:05:18;100958.97;;;24.36;100.00
42621;BME280;28252;53.336;-6.298;2023-07-09T00:05:49;100949.13;;;24.35;100.00
42621;BME280;28252;53.336;-6.298;2023-07-09T00:06:22;100957.28;;;24.35;100.00
42621;BME280;28252;53.336;-6.298;2023-07-09T00:06:54;100955.41;;;24.35;100.00
42621;BME280;28252;53.336;-6.298;2023-07-09T00:07:30;100953.53;;;24.36;100.00
42621;BME280;28252;53.336;-6.298;2023-07-09T00:08:04;100958.13;;;24.35;100.00
42621;BME280;28252;53.336;-6.298;2023-07-09T00:08:37;100948.91;;;24.36;100.00
42621;BME280;28252;53.336;-6.298;2023-07-09T00:09:15;100957.06;;;24.36;100.00
42621;BME280;28252;53.336;-6.298;2023-07-09T00:09:50;100951.84;;;24.35;100.00
42621;BME280;28252;53.336;-6.298;2023-07-09T00:10:23;100959.16;;;24.34;100.00
42621;BME280;28252;53.336;-6.298;2023-07-09T00:12:16;100964.41;;;24.36;100.00
42621;BME280;28252;53.336;-6.298;2023-07-09T00:12:51;100964.59;;;24.34;100.00
42621;BME280;28252;53.336;-6.298;2023-07-09T00:13:25;100969.00;;;24.35;100.00
42621;BME280;28252;53.336;-6.298;2023-07-09T00:13:57;100962.94;;;24.33;100.00
42621;BME280;28252;53.336;-6.298;2023-07-09T00:14:34;100964.59;;;24.34;100.00
42621;BME280;28252;53.336;-6.298;2023-07-09T00:15:09;100965.47;;;24.35;100.00
42621;BME280;28252;53.336;-6.298;2023-07-09T00:15:41;100967.31;;;24.34;100.00
42621;BME280;28252;53.336;-6.298;2023-07-09T00:16:15;100963.56;;;24.35;100.00
42621;BME280;28252;53.336;-6.298;2023-07-09T00:16:50;100968.19;;;24.35;100.00
42621;BME280;28252;53.336;-6.298;2023-07-09T00:17:27;100964.59;;;24.34;100.00
42621;BME280;28252;53.336;-6.298;2023-07-09T00:18:03;100961.03;;;24.34;100.00
42621;BME280;28252;53.336;-6.298;2023-07-09T00:18:36;100965.47;;;24.35;100.00
42621;BME280;28252;53.336;-6.298;2023-07-09T00:19:12;100956.44;;;24.34;100.00
42621;BME280;28252;53.336;-6.298;2023-07-09T00:19:46;100970.91;;;24.35;100.00
42621;BME280;28252;53.336;-6.298;2023-07-09T00:20:21;100967.31;;;24.34;100.00
42621;BME280;28252;53.336;-6.298;2023-07-09T00:20:52;100955.59;;;24.34;100.00
42621;BME280;28252;53.336;-6.298;2023-07-09T00:21:27;100962.75;;;24.35;100.00
42621;BME280;28252;53.336;-6.298;2023-07-09T00:22:10;100953.72;;;24.34;100.00
42621;BME280;28252;53.336;-6.298;2023-07-09T00:22:44;100957.28;;;24.35;100.00
42621;BME280;28252;53.336;-6.298;2023-07-09T00:23:27;100956.44;;;24.34;100.00
42621;BME280;28252;53.336;-6.298;2023-07-09T00:24:00;100960.00;;;24.35;100.00
42621;BME280;28252;53.336;-6.298;2023-07-09T00:24:35;100957.28;;;24.35;100.00
42621;BME280;28252;53.336;-6.298;2023-07-09T00:25:11;100964.59;;;24.34;100.00
42621;BME280;28252;53.336;-6.298;2023-07-09T00:25:49;100964.59;;;24.34;100.00
42621;BME280;28252;53.336;-6.298;2023-07-09T00:26:25;100971.09;;;24.33;100.00
42621;BME280;28252;53.336;-6.298;2023-07-09T00:26:59;100968.38;;;24.33;100.00
42621;BME280;28252;53.336;-6.298;2023-07-09T00:27:30;100974.47;;;24.35;100.00
42621;BME280;28252;53.336;-6.298;2023-07-09T00:28:02;100979.06;;;24.35;100.00
42621;BME280;28252;53.336;-6.298;2023-07-09T00:28:35;100976.34;;;24.35;100.00
42621;BME280;28252;53.336;-6.298;2023-07-09T00:29:10;100975.47;;;24.34;100.00
42621;BME280;28252;53.336;-6.298;2023-07-09T00:29:48;100973.63;;;24.35;100.00
42621;BME280;28252;53.336;-6.298;2023-07-09T00:30:23;100970.03;;;24.34;100.00
42621;BME280;28252;53.336;-6.298;2023-07-09T00:30:54;100973.63;;;24.35;100.00
42621;BME280;28252;53.336;-6.298;2023-07-09T00:31:25;100967.31;;;24.34;100.00
42621;BME280;28252;53.336;-6.298;2023-07-09T00:31:59;100964.78;;;24.33;100.00
42621;BME280;28252;53.336;-6.298;2023-07-09T00:32:30;100965.47;;;24.35;100.00
42621;BME280;28252;53.336;-6.298;2023-07-09T00:33:14;100961.88;;;24.34;100.00
42621;BME280;28252;53.336;-6.298;2023-07-09T00:33:48;100964.59;;;24.34;100.00
42621;BME280;28252;53.336;-6.298;2023-07-09T00:34:19;100967.31;;;24.34;100.00
42621;BME280;28252;53.336;-6.298;2023-07-09T00:34:52;100961.88;;;24.34;100.00
42621;BME280;28252;53.336;-6.298;2023-07-09T00:35:29;100961.88;;;24.34;100.00
42621;BME280;28252;53.336;-6.298;2023-07-09T00:36:04;100961.88;;;24.34;100.00
42621;BME280;28252;53.336;-6.298;2023-07-09T00:36:43;100966.47;;;24.34;100.00
42621;BME280;28252;53.336;-6.298;2023-07-09T00:37:17;100966.47;;;24.34;100.00
42621;BME280;28252;53.336;-6.298;2023-07-09T00:37:51;100964.78;;;24.33;100.00
42621;BME280;28252;53.336;-6.298;2023-07-09T00:38:23;100965.66;;;24.33;100.00
42621;BME280;28252;53.336;-6.298;2023-07-09T00:38:57;100963.94;;;24.32;100.00
42621;BME280;28252;53.336;-6.298;2023-07-09T00:39:34;100961.88;;;24.34;100.00
42621;BME280;28252;53.336;-6.298;2023-07-09T00:40:20;100961.88;;;24.34;100.00
42621;BME280;28252;53.336;-6.298;2023-07-09T00:41:04;100956.44;;;24.34;100.00
42621;BME280;28252;53.336;-6.298;2023-07-09T00:41:36;100954.75;;;24.33;100.00
42621;BME280;28252;53.336;-6.298;2023-07-09T00:42:11;100960.22;;;24.33;100.00
42621;BME280;28252;53.336;-6.298;2023-07-09T00:42:47;100959.16;;;24.34;100.00
42621;BME280;28252;53.336;-6.298;2023-07-09T00:43:18;100952.03;;;24.33;100.00
42621;BME280;28252;53.336;-6.298;2023-07-09T00:43:54;100960.22;;;24.33;100.00
42621;BME280;28252;53.336;-6.298;2023-07-09T00:44:27;100965.66;;;24.33;100.00
42621;BME280;28252;53.336;-6.298;2023-07-09T00:45:02;100958.31;;;24.34;100.00
42621;BME280;28252;53.336;-6.298;2023-07-09T00:45:39;100961.03;;;24.34;100.00
42621;BME280;28252;53.336;-6.298;2023-07-09T00:51:04;100958.50;;;24.32;100.00
42621;BME280;28252;53.336;-6.298;2023-07-09T00:51:40;100957.66;;;24.32;100.00
42621;BME280;28252;53.336;-6.298;2023-07-09T00:52:26;100963.94;;;24.32;100.00
42621;BME280;28252;53.336;-6.298;2023-07-09T00:53:08;100956.81;;;24.31;100.00
42621;BME280;28252;53.336;-6.298;2023-07-09T00:53:46;100965.84;;;24.32;100.00
42621;BME280;28252;53.336;-6.298;2023-07-09T00:54:27;100964.97;;;24.31;100.00
42621;BME280;28252;53.336;-6.298;2023-07-09T00:55:03;100961.41;;;24.31;100.00
42621;BME280;28252;53.336;-6.298;2023-07-09T00:55:39;100971.28;;;24.32;100.00
42621;BME280;28252;53.336;-6.298;2023-07-09T00:56:23;100964.97;;;24.31;100.00
42621;BME280;28252;53.336;-6.298;2023-07-09T00:56:59;100961.41;;;24.31;100.00
42621;BME280;28252;53.336;-6.298;2023-07-09T00:57:32;100966.84;;;24.31;100.00
42621;BME280;28252;53.336;-6.298;2023-07-09T00:58:11;100964.13;;;24.31;100.00
42621;BME280;28252;53.336;-6.298;2023-07-09T00:58:53;100957.03;;;24.30;100.00
42621;BME280;28252;53.336;-6.298;2023-07-09T00:59:29;100961.41;;;24.31;100.00
42621;BME280;28252;53.336;-6.298;2023-07-09T01:00:04;100964.31;;;24.29;100.00
42621;BME280;28252;53.336;-6.298;2023-07-09T01:00:43;100963.31;;;24.30;100.00
42621;BME280;28252;53.336;-6.298;2023-07-09T01:01:18;100963.31;;;24.30;100.00
42621;BME280;28252;53.336;-6.298;2023-07-09T01:01:56;100958.88;;;24.29;100.00
42621;BME280;28252;53.336;-6.298;2023-07-09T01:02:33;100963.31;;;24.30;100.00
42621;BME280;28252;53.336;-6.298;2023-07-09T01:03:07;100964.31;;;24.29;100.00
42621;BME280;28252;53.336;-6.298;2023-07-09T01:03:44;100965.19;;;24.30;100.00
42621;BME280;28252;53.336;-6.298;2023-07-09T01:04:16;100967.03;;;24.29;100.00
42621;BME280;28252;53.336;-6.298;2023-07-09T01:04:57;100965.19;;;24.30;100.00
42621;BME280;28252;53.336;-6.298;2023-07-09T01:05:34;100962.47;;;24.30;100.00
42621;BME280;28252;53.336;-6.298;2023-07-09T01:06:08;100959.75;;;24.30;100.00
42621;BME280;28252;53.336;-6.298;2023-07-09T01:06:46;100957.03;;;24.30;100.00
42621;BME280;28252;53.336;-6.298;2023-07-09T01:07:19;100960.59;;;24.30;100.00
42621;BME280;28252;53.336;-6.298;2023-07-09T01:07:55;100957.03;;;24.30;100.00
42621;BME280;28252;53.336;-6.298;2023-07-09T01:08:30;100957.84;;;24.30;100.00
42621;BME280;28252;53.336;-6.298;2023-07-09T01:09:04;100957.03;;;24.30;100.00
42621;BME280;28252;53.336;-6.298;2023-07-09T01:09:37;100964.31;;;24.29;100.00
42621;BME280;28252;53.336;-6.298;2023-07-09T01:10:16;100963.50;;;24.29;100.00
42621;BME280;28252;53.336;-6.298;2023-07-09T01:10:50;100964.31;;;24.29;100.00
42621;BME280;28252;53.336;-6.298;2023-07-09T01:11:23;100958.88;;;24.29;100.00
42621;BME280;28252;53.336;-6.298;2023-07-09T01:11:54;100964.31;;;24.29;100.00
42621;BME280;28252;53.336;-6.298;2023-07-09T01:12:36;100965.19;;;24.30;100.00
42621;BME280;28252;53.336;-6.298;2023-07-09T01:13:09;100966.03;;;24.30;100.00
42621;BME280;28252;53.336;-6.298;2023-07-09T01:13:43;100964.31;;;24.29;100.00
42621;BME280;28252;53.336;-6.298;2023-07-09T01:14:16;100964.31;;;24.29;100.00
42621;BME280;28252;53.336;-6.298;2023-07-09T01:14:50;100964.31;;;24.29;100.00
42621;BME280;28252;53.336;-6.298;2023-07-09T01:15:25;100958.88;;;24.29;100.00
42621;BME280;28252;53.336;-6.298;2023-07-09T01:15:59;100967.03;;;24.29;100.00
42621;BME280;28252;53.336;-6.298;2023-07-09T01:16:34;100964.31;;;24.29;100.00
42621;BME280;28252;53.336;-6.298;2023-07-09T01:17:09;100961.41;;;24.31;100.00
42621;BME280;28252;53.336;-6.298;2023-07-09T01:17:44;100968.75;;;24.30;100.00
42621;BME280;28252;53.336;-6.298;2023-07-09T01:18:20;100968.75;;;24.30;100.00
42621;BME280;28252;53.336;-6.298;2023-07-09T01:18:54;100965.19;;;24.30;100.00
42621;BME280;28252;53.336;-6.298;2023-07-09T01:19:29;100966.03;;;24.30;100.00
42621;BME280;28252;53.336;-6.298;2023-07-09T01:20:03;100966.03;;;24.30;100.00
42621;BME280;28252;53.336;-6.298;2023-07-09T01:20:37;100966.03;;;24.30;100.00
42621;BME280;28252;53.336;-6.298;2023-07-09T01:21:11;100963.31;;;24.30;100.00
42621;BME280;28252;53.336;-6.298;2023-07-09T01:21:49;100966.03;;;24.30;100.00
42621;BME280;28252;53.336;-6.298;2023-07-09T01:22:25;100974.19;;;24.30;100.00
42621;BME280;28252;53.336;-6.298;2023-07-09T01:23:02;100969.78;;;24.29;100.00
42621;BME280;28252;53.336;-6.298;2023-07-09T01:23:37;100966.03;;;24.30;100.00
42621;BME280;28252;53.336;-6.298;2023-07-09T01:24:13;100968.75;;;24.30;100.00
42621;BME280;28252;53.336;-6.298;2023-07-09T01:24:54;100961.59;;;24.29;100.00
42621;BME280;28252;53.336;-6.298;2023-07-09T01:25:30;100969.78;;;24.29;100.00
42621;BME280;28252;53.336;-6.298;2023-07-09T01:26:03;100963.50;;;24.29;100.00
42621;BME280;28252;53.336;-6.298;2023-07-09T01:26:38;100964.31;;;24.29;100.00
42621;BME280;28252;53.336;-6.298;2023-07-09T01:27:11;100961.59;;;24.29;100.00
42621;BME280;28252;53.336;-6.298;2023-07-09T01:27:47;100965.19;;;24.30;100.00
42621;BME280;28252;53.336;-6.298;2023-07-09T01:28:20;100961.59;;;24.29;100.00
42621;BME280;28252;53.336;-6.298;2023-07-09T01:28:57;100969.78;;;24.29;100.00
42621;BME280;28252;53.336;-6.298;2023-07-09T01:29:32;100967.03;;;24.29;100.00
42621;BME280;28252;53.336;-6.298;2023-07-09T01:30:16;100959.94;;;24.28;100.00
42621;BME280;28252;53.336;-6.298;2023-07-09T01:30:54;100967.91;;;24.30;100.00
42621;BME280;28252;53.336;-6.298;2023-07-09T01:31:30;100957.22;;;24.28;100.00
42621;BME280;28252;53.336;-6.298;2023-07-09T01:32:03;100964.31;;;24.29;100.00
42621;BME280;28252;53.336;-6.298;2023-07-09T01:32:36;100959.75;;;24.30;100.00
42621;BME280;28252;53.336;-6.298;2023-07-09T01:33:13;100958.06;;;24.29;100.00
42621;BME280;28252;53.336;-6.298;2023-07-09T01:33:46;100969.78;;;24.29;100.00
42621;BME280;28252;53.336;-6.298;2023-07-09T01:34:17;100964.31;;;24.29;100.00
42621;BME280;28252;53.336;-6.298;2023-07-09T01:34:54;100963.50;;;24.29;100.00
42621;BME280;28252;53.336;-6.298;2023-07-09T01:35:30;100968.09;;;24.28;100.00
42621;BME280;28252;53.336;-6.298;2023-07-09T01:36:10;100967.25;;;24.28;100.00
42621;BME280;28252;53.336;-6.298;2023-07-09T01:36:44;100970.81;;;24.28;100.00
42621;BME280;28252;53.336;-6.298;2023-07-09T01:37:19;100973.53;;;24.28;100.00
42621;BME280;28252;53.336;-6.298;2023-07-09T01:37:52;100973.53;;;24.28;100.00
42621;BME280;28252;53.336;-6.298;2023-07-09T01:38:28;100968.09;;;24.28;100.00
42621;BME280;28252;53.336;-6.298;2023-07-09T01:39:06;100973.53;;;24.28;100.00
42621;BME280;28252;53.336;-6.298;2023-07-09T01:39:42;100967.25;;;24.28;100.00
42621;BME280;28252;53.336;-6.298;2023-07-09T01:40:17;100968.09;;;24.28;100.00
42621;BME280;28252;53.336;-6.298;2023-07-09T01:40:54;100964.50;;;24.28;100.00
42621;BME280;28252;53.336;-6.298;2023-07-09T01:41:29;100966.41;;;24.27;100.00
42621;BME280;28252;53.336;-6.298;2023-07-09T01:42:05;100968.09;;;24.28;100.00
42621;BME280;28252;53.336;-6.298;2023-07-09T01:42:41;100961.78;;;24.28;100.00
42621;BME280;28252;53.336;-6.298;2023-07-09T01:43:15;100963.50;;;24.29;100.00
42621;BME280;28252;53.336;-6.298;2023-07-09T01:43:46;100966.41;;;24.27;100.00
42621;BME280;28252;53.336;-6.298;2023-07-09T01:44:22;100966.41;;;24.27;100.00
42621;BME280;28252;53.336;-6.298;2023-07-09T01:44:55;100969.97;;;24.28;100.00
42621;BME280;28252;53.336;-6.298;2023-07-09T01:45:29;100971.00;;;24.27;100.00
42621;BME280;28252;53.336;-6.298;2023-07-09T01:46:00;100964.69;;;24.26;100.00
42621;BME280;28252;53.336;-6.298;2023-07-09T01:46:31;100971.00;;;24.27;100.00
42621;BME280;28252;53.336;-6.298;2023-07-09T01:47:12;100966.41;;;24.27;100.00
42621;BME280;28252;53.336;-6.298;2023-07-09T01:47:48;100970.16;;;24.26;100.00
42621;BME280;28252;53.336;-6.298;2023-07-09T01:48:27;100970.16;;;24.26;100.00
42621;BME280;28252;53.336;-6.298;2023-07-09T01:49:00;100966.41;;;24.27;100.00
42621;BME280;28252;53.336;-6.298;2023-07-09T01:49:34;100969.31;;;24.26;100.00
42621;BME280;28252;53.336;-6.298;2023-07-09T01:50:09;100970.16;;;24.26;100.00
42621;BME280;28252;53.336;-6.298;2023-07-09T01:50:43;100977.28;;;24.27;100.00
42621;BME280;28252;53.336;-6.298;2023-07-09T01:51:15;100971.00;;;24.27;100.00
42621;BME280;28252;53.336;-6.298;2023-07-09T01:51:47;100970.16;;;24.26;100.00
42621;BME280;28252;53.336;-6.298;2023-07-09T01:52:22;100970.16;;;24.26;100.00
42621;BME280;28252;53.336;-6.298;2023-07-09T01:52:57;100964.69;;;24.26;100.00
42621;BME280;28252;53.336;-6.298;2023-07-09T01:53:32;100967.41;;;24.26;100.00
42621;BME280;28252;53.336;-6.298;2023-07-09T01:55:15;100964.69;;;24.26;100.00
42621;BME280;28252;53.336;-6.298;2023-07-09T01:55:51;100966.78;;;24.24;100.00
42621;BME280;28252;53.336;-6.298;2023-07-09T01:56:27;100963.88;;;24.26;100.00
42621;BME280;28252;53.336;-6.298;2023-07-09T01:57:13;100965.75;;;24.25;100.00
42621;BME280;28252;53.336;-6.298;2023-07-09T01:57:47;100954.88;;;24.25;100.00
42621;BME280;28252;53.336;-6.298;2023-07-09T01:58:29;100968.47;;;24.25;100.00
42621;BME280;28252;53.336;-6.298;2023-07-09T01:59:04;100960.50;;;24.23;100.00
42621;BME280;28252;53.336;-6.298;2023-07-09T01:59:38;100955.06;;;24.23;100.00
42621;BME280;28252;53.336;-6.298;2023-07-09T02:00:13;100958.63;;;24.24;100.00
42621;BME280;28252;53.336;-6.298;2023-07-09T02:00:47;100954.22;;;24.23;100.00
42621;BME280;28252;53.336;-6.298;2023-07-09T02:01:21;100956.94;;;24.23;100.00
42621;BME280;28252;53.336;-6.298;2023-07-09T02:01:52;100957.78;;;24.23;100.00
42621;BME280;28252;53.336;-6.298;2023-07-09T02:02:24;100952.53;;;24.22;100.00
42621;BME280;28252;53.336;-6.298;2023-07-09T02:03:00;100956.06;;;24.22;100.00
42621;BME280;28252;53.336;-6.298;2023-07-09T02:03:35;100958.81;;;24.22;100.00
42621;BME280;28252;53.336;-6.298;2023-07-09T02:04:10;100959.66;;;24.23;100.00
42621;BME280;28252;53.336;-6.298;2023-07-09T02:04:44;100958.81;;;24.22;100.00
42621;BME280;28252;53.336;-6.298;2023-07-09T02:05:21;100965.09;;;24.23;100.00
42621;BME280;28252;53.336;-6.298;2023-07-09T02:05:59;100957.97;;;24.22;100.00
42621;BME280;28252;53.336;-6.298;2023-07-09T02:06:33;100963.41;;;24.22;100.00
42621;BME280;28252;53.336;-6.298;2023-07-09T02:07:07;100955.25;;;24.22;100.00
42621;BME280;28252;53.336;-6.298;2023-07-09T02:07:38;100956.28;;;24.21;100.00
42621;BME280;28252;53.336;-6.298;2023-07-09T02:08:14;100963.41;;;24.22;100.00
42621;BME280;28252;53.336;-6.298;2023-07-09T02:08:45;100955.25;;;24.22;100.00
42621;BME280;28252;53.336;-6.298;2023-07-09T02:09:18;100962.56;;;24.21;100.00
42621;BME280;28252;53.336;-6.298;2023-07-09T02:09:50;100953.53;;;24.21;100.00
42621;BME280;28252;53.336;-6.298;2023-07-09T02:10:21;100958.16;;;24.20;100.00
42621;BME280;28252;53.336;-6.298;2023-07-09T02:10:52;100957.97;;;24.22;100.00
42621;BME280;28252;53.336;-6.298;2023-07-09T02:11:26;100961.72;;;24.21;100.00
42621;BME280;28252;53.336;-6.298;2023-07-09T02:12:08;100962.56;;;24.21;100.00
42621;BME280;28252;53.336;-6.298;2023-07-09T02:12:40;100959.00;;;24.21;100.00
42621;BME280;28252;53.336;-6.298;2023-07-09T02:13:11;100961.72;;;24.21;100.00
42621;BME280;28252;53.336;-6.298;2023-07-09T02:13:44;100960.88;;;24.20;100.00
42621;BME280;28252;53.336;-6.298;2023-07-09T02:14:20;100969.88;;;24.21;100.00
42621;BME280;28252;53.336;-6.298;2023-07-09T02:14:55;100968.22;;;24.20;100.00
42621;BME280;28252;53.336;-6.298;2023-07-09T02:15:29;100972.59;;;24.21;100.00
42621;BME280;28252;53.336;-6.298;2023-07-09T02:16:02;100970.94;;;24.20;100.00
42621;BME280;28252;53.336;-6.298;2023-07-09T02:16:36;100970.94;;;24.20;100.00
42621;BME280;28252;53.336;-6.298;2023-07-09T02:17:09;100970.94;;;24.20;100.00
42621;BME280;28252;53.336;-6.298;2023-07-09T02:17:48;100970.06;;;24.19;100.00
42621;BME280;28252;53.336;-6.298;2023-07-09T02:18:27;100969.22;;;24.19;100.00
42621;BME280;28252;53.336;-6.298;2023-07-09T02:19:00;100969.22;;;24.19;100.00
42621;BME280;28252;53.336;-6.298;2023-07-09T02:19:37;100966.50;;;24.19;100.00
42621;BME280;28252;53.336;-6.298;2023-07-09T02:20:11;100966.50;;;24.19;100.00
42621;BME280;28252;53.336;-6.298;2023-07-09T02:20:42;100961.06;;;24.19;100.00
42621;BME280;28252;53.336;-6.298;2023-07-09T02:21:15;100970.06;;;24.19;100.00
42621;BME280;28252;53.336;-6.298;2023-07-09T02:21:46;100967.56;;;24.18;100.00
42621;BME280;28252;53.336;-6.298;2023-07-09T02:22:22;100956.44;;;24.19;100.00
42621;BME280;28252;53.336;-6.298;2023-07-09T02:22:55;100963.97;;;24.17;100.00
42621;BME280;28252;53.336;-6.298;2023-07-09T02:23:31;100963.78;;;24.19;100.00
42621;BME280;28252;53.336;-6.298;2023-07-09T02:24:05;100970.06;;;24.19;100.00
42621;BME280;28252;53.336;-6.298;2023-07-09T02:24:38;100963.78;;;24.19;100.00
42621;BME280;28252;53.336;-6.298;2023-07-09T02:25:12;100967.56;;;24.18;100.00
42621;BME280;28252;53.336;-6.298;2023-07-09T02:27:06;100955.81;;;24.17;100.00
42621;BME280;28252;53.336;-6.298;2023-07-09T02:27:41;100950.56;;;24.16;100.00
42621;BME280;28252;53.336;-6.298;2023-07-09T02:28:12;100952.25;;;24.17;100.00
42621;BME280;28252;53.336;-6.298;2023-07-09T02:28:45;100954.97;;;24.17;100.00
42621;BME280;28252;53.336;-6.298;2023-07-09T02:29:18;100953.28;;;24.16;100.00
42621;BME280;28252;53.336;-6.298;2023-07-09T02:29:52;100957.88;;;24.15;100.00
42621;BME280;28252;53.336;-6.298;2023-07-09T02:30:25;100957.06;;;24.15;100.00
42621;BME280;28252;53.336;-6.298;2023-07-09T02:31:01;100962.50;;;24.15;100.00
42621;BME280;28252;53.336;-6.298;2023-07-09T02:31:34;100967.94;;;24.15;100.00
42621;BME280;28252;53.336;-6.298;2023-07-09T02:32:08;100954.31;;;24.15;100.00
42621;BME280;28252;53.336;-6.298;2023-07-09T02:32:42;100966.22;;;24.14;100.00
42621;BME280;28252;53.336;-6.298;2023-07-09T02:33:15;100961.63;;;24.14;100.00
42621;BME280;28252;53.336;-6.298;2023-07-09T02:33:51;100961.63;;;24.14;100.00
42621;BME280;28252;53.336;-6.298;2023-07-09T02:34:27;100971.69;;;24.14;100.00
42621;BME280;28252;53.336;-6.298;2023-07-09T02:35:00;100959.13;;;24.13;100.00
42621;BME280;28252;53.336;-6.298;2023-07-09T02:35:37;100965.41;;;24.13;100.00
42621;BME280;28252;53.336;-6.298;2023-07-09T02:36:13;100962.69;;;24.13;100.00
42621;BME280;28252;53.336;-6.298;2023-07-09T02:36:46;100959.13;;;24.13;100.00
42621;BME280;28252;53.336;-6.298;2023-07-09T02:37:21;100950.09;;;24.12;100.00
42621;BME280;28252;53.336;-6.298;2023-07-09T02:37:53;100950.97;;;24.13;100.00
42621;BME280;28252;53.336;-6.298;2023-07-09T02:38:24;100959.13;;;24.13;100.00
42621;BME280;28252;53.336;-6.298;2023-07-09T02:38:58;100953.69;;;24.13;100.00
42621;BME280;28252;53.336;-6.298;2023-07-09T02:39:32;100958.25;;;24.12;100.00
42621;BME280;28252;53.336;-6.298;2023-07-09T02:40:03;100953.69;;;24.13;100.00
42621;BME280;28252;53.336;-6.298;2023-07-09T02:40:42;100950.09;;;24.12;100.00
42621;BME280;28252;53.336;-6.298;2023-07-09T02:41:23;100957.41;;;24.12;100.00
42621;BME280;28252;53.336;-6.298;2023-07-09T02:41:54;100951.97;;;24.12;100.00
42621;BME280;28252;53.336;-6.298;2023-07-09T02:42:25;100949.25;;;24.12;100.00
42621;BME280;28252;53.336;-6.298;2023-07-09T02:42:56;100948.44;;;24.11;100.00
42621;BME280;28252;53.336;-6.298;2023-07-09T02:44:22;100942.13;;;24.11;100.00
42621;BME280;28252;53.336;-6.298;2023-07-09T02:44:53;100949.25;;;24.12;100.00
42621;BME280;28252;53.336;-6.298;2023-07-09T02:45:26;100953.00;;;24.11;100.00
42621;BME280;28252;53.336;-6.298;2023-07-09T02:46:04;100951.97;;;24.12;100.00
42621;BME280;28252;53.336;-6.298;2023-07-09T02:46:37;100953.00;;;24.11;100.00
42621;BME280;28252;53.336;-6.298;2023-07-09T02:47:11;100955.72;;;24.11;100.00
42621;BME280;28252;53.336;-6.298;2023-07-09T02:47:47;100943.16;;;24.10;100.00
42621;BME280;28252;53.336;-6.298;2023-07-09T02:48:23;100952.16;;;24.10;100.00
42621;BME280;28252;53.336;-6.298;2023-07-09T02:48:56;100951.34;;;24.10;100.00
42621;BME280;28252;53.336;-6.298;2023-07-09T02:49:30;100953.19;;;24.09;100.00
42621;BME280;28252;53.336;-6.298;2023-07-09T02:50:06;100945.88;;;24.10;100.00
42621;BME280;28252;53.336;-6.298;2023-07-09T02:50:42;100954.06;;;24.10;100.00
42621;BME280;28252;53.336;-6.298;2023-07-09T02:51:15;100944.19;;;24.09;100.00
42621;BME280;28252;53.336;-6.298;2023-07-09T02:51:48;100952.34;;;24.09;100.00
42621;BME280;28252;53.336;-6.298;2023-07-09T02:52:24;100952.34;;;24.09;100.00
42621;BME280;28252;53.336;-6.298;2023-07-09T02:52:55;100955.06;;;24.09;100.00
42621;BME280;28252;53.336;-6.298;2023-07-09T02:53:27;100952.34;;;24.09;100.00
42621;BME280;28252;53.336;-6.298;2023-07-09T02:53:59;100951.53;;;24.08;100.00
42621;BME280;28252;53.336;-6.298;2023-07-09T02:54:33;100950.69;;;24.08;100.00
42621;BME280;28252;53.336;-6.298;2023-07-09T02:55:06;100952.34;;;24.09;100.00
42621;BME280;28252;53.336;-6.298;2023-07-09T02:55:39;100956.13;;;24.08;100.00
42621;BME280;28252;53.336;-6.298;2023-07-09T02:56:10;100951.53;;;24.08;100.00
42621;BME280;28252;53.336;-6.298;2023-07-09T02:56:41;100950.69;;;24.08;100.00
42621;BME280;28252;53.336;-6.298;2023-07-09T02:57:16;100949.81;;;24.07;100.00
42621;BME280;28252;53.336;-6.298;2023-07-09T02:57:54;100954.25;;;24.08;100.00
42621;BME280;28252;53.336;-6.298;2023-07-09T02:58:28;100951.53;;;24.08;100.00
42621;BME280;28252;53.336;-6.298;2023-07-09T02:59:01;100956.13;;;24.08;100.00
42621;BME280;28252;53.336;-6.298;2023-07-09T02:59:34;100954.44;;;24.07;100.00
42621;BME280;28252;53.336;-6.298;2023-07-09T03:00:10;100961.56;;;24.08;100.00
42621;BME280;28252;53.336;-6.298;2023-07-09T03:00:44;100952.53;;;24.07;100.00
42621;BME280;28252;53.336;-6.298;2023-07-09T03:01:22;100950.69;;;24.08;100.00
42621;BME280;28252;53.336;-6.298;2023-07-09T03:02:02;100952.72;;;24.05;100.00
42621;BME280;28252;53.336;-6.298;2023-07-09T03:02:33;100957.16;;;24.07;100.00
42621;BME280;28252;53.336;-6.298;2023-07-09T03:03:09;100951.72;;;24.07;100.00
42621;BME280;28252;53.336;-6.298;2023-07-09T03:03:42;100952.72;;;24.05;100.00
42621;BME280;28252;53.336;-6.298;2023-07-09T03:04:14;100954.44;;;24.07;100.00
42621;BME280;28252;53.336;-6.298;2023-07-09T03:05:57;100950.00;;;24.05;100.00
42621;BME280;28252;53.336;-6.298;2023-07-09T03:06:33;100947.28;;;24.05;100.00
42621;BME280;28252;53.336;-6.298;2023-07-09T03:07:09;100946.44;;;24.05;100.00
42621;BME280;28252;53.336;-6.298;2023-07-09T03:07:44;100946.44;;;24.05;100.00
42621;BME280;28252;53.336;-6.298;2023-07-09T03:08:15;100945.63;;;24.04;100.00